Glory Ocean — 9VDE7 — position and weather

sailwx.info

Track history (hours):
 
Tides and Currents Weather Stations Pressure Air Temp Water Temp Dewpoint Dewpoint Depression Visibility Wind Speed Wind Dir Waves Ship Positions

Glory Ocean

Last reported at 2015-Mar-27 06:33 UTC. Time now 2015-Mar-27 15:47 UTC.
Position N 35°59' W 005°30'.

Length 139 m; draft 9.1 m.

Type: Cargo ship. MMSI: 564700000.

Date/timePositionNaut miles runAvg speedWind from/ knotsBaromVisibWave heightAir tempDewpointWater temp
2015-Mar-27 06:33N 35°59' W 005°30'9 8.6
2015-Mar-27 05:33N 36°01' W 005°20'8 8.4
2015-Mar-27 04:33N 36°06' W 005°12'20810.7
2015-Mar-26 09:10N 37°11' W 001°06'812.3
2015-Mar-26 08:33N 37°16' W 000°59'1212.2
2015-Mar-26 07:33N 37°24' W 000°48'1312.6
2015-Mar-26 06:33N 37°33' W 000°35'1312.6
2015-Mar-26 05:33N 37°43' W 000°26'1212.1
2015-Mar-26 04:33N 37°53' W 000°18'1212.2
2015-Mar-26 03:33N 38°03' W 000°09'128 9.0
2015-Mar-25 13:22N 39°60' E 000°58'5 6.5
2015-Mar-25 12:32N 40°05' E 000°58'6 6.5
2015-Mar-25 11:32N 40°11' E 000°54'7 6.2
2015-Mar-25 10:28N 40°17' E 000°52'  
2015-Mar-22 11:32N 40°34' E 000°33'0 0.0
2015-Mar-21 18:20N 40°34' E 000°33'0 0.0
2015-Mar-21 17:26N 40°34' E 000°33'0 0.0
2015-Mar-21 16:08N 40°34' E 000°33'23 2.7
2015-Mar-21 07:32N 40°28' E 001°02'1 0.5
2015-Mar-21 06:32N 40°28' E 001°03'4 3.7
2015-Mar-21 05:33N 40°24' E 001°00'4 3.5
2015-Mar-21 04:31N 40°21' E 000°58'3 3.4
2015-Mar-21 03:33N 40°18' E 000°57'3 3.2
2015-Mar-21 02:33N 40°15' E 000°55'6 5.8
2015-Mar-21 01:33N 40°11' E 000°60'5 4.8
2015-Mar-21 00:33N 40°06' E 001°01'4 4.2
2015-Mar-20 23:33N 40°02' E 001°01'3 3.4
2015-Mar-20 22:33N 39°58' E 001°00'3 2.6
2015-Mar-20 21:31N 39°56' E 000°59'7 2.3
2015-Mar-20 18:31N 39°49' E 000°57'2 2.0
2015-Mar-20 17:30N 39°51' E 000°56'2 0.9
2015-Mar-20 15:11N 39°49' E 000°55'4 2.2
2015-Mar-20 13:33N 39°45' E 000°54'119 3.6
2015-Mar-19 04:33N 37°57' W 000°11'3 3.1
2015-Mar-19 03:32N 37°54' W 000°13'3 3.2
2015-Mar-19 02:33N 37°52' W 000°15'4 3.7
2015-Mar-19 01:30N 37°48' W 000°18'4 4.0
2015-Mar-19 00:24N 37°45' W 000°21'3 3.6
2015-Mar-18 23:33N 37°42' W 000°23'4 4.1
2015-Mar-18 22:33N 37°39' W 000°26'4 4.4
2015-Mar-18 21:33N 37°35' W 000°29'4 4.1
2015-Mar-18 20:33N 37°32' W 000°32'4 4.1
2015-Mar-18 19:33N 37°29' W 000°36'4 4.2
2015-Mar-18 18:33N 37°26' W 000°40'4 4.1
2015-Mar-18 17:33N 37°24' W 000°44'4 4.4
2015-Mar-18 16:33N 37°21' W 000°48'4 4.3
2015-Mar-18 15:33N 37°18' W 000°52'5 4.5
2015-Mar-18 14:33N 37°14' W 000°56'5 4.5
2015-Mar-18 13:33N 37°11' W 001°00'4 4.5
2015-Mar-18 12:33N 37°08' W 001°04'  
Track history (hours):
 
Tides and Currents Weather Stations Pressure Air Temp Water Temp Dewpoint Dewpoint Depression Visibility Wind Speed Wind Dir Waves Ship Positions

Glory Ocean

Last reported at 2015-Mar-27 06:33 UTC. Time now 2015-Mar-27 15:47 UTC.
Position N 35°59' W 005°30'.

Length 139 m; draft 9.1 m.

Type: Cargo ship. MMSI: 564700000.

Date/timePositionNaut miles runAvg speedWind from/ knotsBaromVisibWave heightAir tempDewpointWater temp
2015-Mar-27 06:33N 35°59' W 005°30'9 8.6
2015-Mar-27 05:33N 36°01' W 005°20'8 8.4
2015-Mar-27 04:33N 36°06' W 005°12'20810.7
2015-Mar-26 09:10N 37°11' W 001°06'812.3
2015-Mar-26 08:33N 37°16' W 000°59'1212.2
2015-Mar-26 07:33N 37°24' W 000°48'1312.6
2015-Mar-26 06:33N 37°33' W 000°35'1312.6
2015-Mar-26 05:33N 37°43' W 000°26'1212.1
2015-Mar-26 04:33N 37°53' W 000°18'1212.2
2015-Mar-26 03:33N 38°03' W 000°09'128 9.0
2015-Mar-25 13:22N 39°60' E 000°58'5 6.5
2015-Mar-25 12:32N 40°05' E 000°58'6 6.5
2015-Mar-25 11:32N 40°11' E 000°54'7 6.2
2015-Mar-25 10:28N 40°17' E 000°52'  
2015-Mar-22 11:32N 40°34' E 000°33'0 0.0
2015-Mar-21 18:20N 40°34' E 000°33'0 0.0
2015-Mar-21 17:26N 40°34' E 000°33'0 0.0
2015-Mar-21 16:08N 40°34' E 000°33'23 2.7
2015-Mar-21 07:32N 40°28' E 001°02'1 0.5
2015-Mar-21 06:32N 40°28' E 001°03'4 3.7
2015-Mar-21 05:33N 40°24' E 001°00'4 3.5
2015-Mar-21 04:31N 40°21' E 000°58'3 3.4
2015-Mar-21 03:33N 40°18' E 000°57'3 3.2
2015-Mar-21 02:33N 40°15' E 000°55'6 5.8
2015-Mar-21 01:33N 40°11' E 000°60'5 4.8
2015-Mar-21 00:33N 40°06' E 001°01'4 4.2
2015-Mar-20 23:33N 40°02' E 001°01'3 3.4
2015-Mar-20 22:33N 39°58' E 001°00'3 2.6
2015-Mar-20 21:31N 39°56' E 000°59'7 2.3
2015-Mar-20 18:31N 39°49' E 000°57'2 2.0
2015-Mar-20 17:30N 39°51' E 000°56'2 0.9
2015-Mar-20 15:11N 39°49' E 000°55'4 2.2
2015-Mar-20 13:33N 39°45' E 000°54'119 3.6
2015-Mar-19 04:33N 37°57' W 000°11'3 3.1
2015-Mar-19 03:32N 37°54' W 000°13'3 3.2
2015-Mar-19 02:33N 37°52' W 000°15'4 3.7
2015-Mar-19 01:30N 37°48' W 000°18'4 4.0
2015-Mar-19 00:24N 37°45' W 000°21'3 3.6
2015-Mar-18 23:33N 37°42' W 000°23'4 4.1
2015-Mar-18 22:33N 37°39' W 000°26'4 4.4
2015-Mar-18 21:33N 37°35' W 000°29'4 4.1
2015-Mar-18 20:33N 37°32' W 000°32'4 4.1
2015-Mar-18 19:33N 37°29' W 000°36'4 4.2
2015-Mar-18 18:33N 37°26' W 000°40'4 4.1
2015-Mar-18 17:33N 37°24' W 000°44'4 4.4
2015-Mar-18 16:33N 37°21' W 000°48'4 4.3
2015-Mar-18 15:33N 37°18' W 000°52'5 4.5
2015-Mar-18 14:33N 37°14' W 000°56'5 4.5
2015-Mar-18 13:33N 37°11' W 001°00'4 4.5
2015-Mar-18 12:33N 37°08' W 001°04'  

Dump ship's entire track history